Time;durP1;ratioP1;P1;durP2;ratioP2;P2;SDS_P1;SDS_P2;PMS_P1;PMS_P2;Temp;Humidity;BMP_temperature;BMP_pressure;BME280_temperature;BME280_humidity;BME280_pressure;Samples;Min_cycle;Max_cycle;Signal;HPM_P1;HPM_P2
2021/10/11 00:01:10;;;;;;;3.28;1.02;;;13.00;92.50;;;;;;2086754;28;20041;-94
2021/10/11 00:02:30;;;;;;;3.45;0.85;;;13.00;92.50;;;;;;2073693;28;20038;-93
2021/10/11 00:03:49;;;;;;;5.30;0.90;;;13.00;92.50;;;;;;2086680;28;20072;-95
2021/10/11 00:05:10;;;;;;;1.88;0.82;;;12.90;92.50;;;;;;2085722;28;20499;-95
2021/10/11 00:06:29;;;;;;;;;;;13.00;92.60;;;;;;2098178;28;20040;-95
2021/10/11 00:07:49;;;;;;;3.72;0.90;;;13.00;92.50;;;;;;2090060;28;20363;-95
2021/10/11 00:09:08;;;;;;;1.85;0.90;;;12.90;92.50;;;;;;2083590;28;20045;-94
2021/10/11 00:10:28;;;;;;;2.25;0.90;;;12.90;92.50;;;;;;2088297;28;20550;-95
2021/10/11 00:11:47;;;;;;;2.83;0.90;;;13.00;92.50;;;;;;2087231;28;20053;-94
2021/10/11 00:13:06;;;;;;;1.83;0.80;;;12.90;92.50;;;;;;2099463;28;20095;-84
2021/10/11 00:14:26;;;;;;;2.15;0.90;;;12.90;92.50;;;;;;2110561;28;20028;-96
2021/10/11 00:15:45;;;;;;;3.17;0.90;;;12.90;92.50;;;;;;2110335;28;20033;-95
2021/10/11 00:17:05;;;;;;;1.30;0.80;;;12.90;92.50;;;;;;2093629;28;20040;-94
2021/10/11 00:18:24;;;;;;;1.67;0.80;;;12.90;92.60;;;;;;2091314;28;20119;-95
2021/10/11 00:19:45;;;;;;;2.63;0.80;;;12.90;92.60;;;;;;2100018;28;20040;-94
2021/10/11 00:21:05;;;;;;;2.22;0.77;;;12.90;92.60;;;;;;2088191;28;20045;-95
2021/10/11 00:22:24;;;;;;;1.73;0.63;;;12.90;92.60;;;;;;2081357;28;20112;-95
2021/10/11 00:23:44;;;;;;;1.98;0.70;;;12.90;92.60;;;;;;2079054;28;20450;-94
2021/10/11 00:25:07;;;;;;;2.38;0.88;;;12.90;92.60;;;;;;2087593;28;20052;-94
2021/10/11 00:26:27;;;;;;;3.28;0.80;;;12.90;92.60;;;;;;2105897;28;20044;-94
2021/10/11 00:27:46;;;;;;;2.42;0.73;;;12.90;92.70;;;;;;2102604;28;20033;-94
2021/10/11 00:29:05;;;;;;;3.45;0.90;;;12.90;92.70;;;;;;2082603;28;20038;-94
2021/10/11 00:30:24;;;;;;;2.88;1.00;;;12.90;92.70;;;;;;2088395;28;20017;-93
2021/10/11 00:31:43;;;;;;;3.60;0.80;;;12.90;92.70;;;;;;2085804;28;20231;-93
2021/10/11 00:33:05;;;;;;;2.35;0.70;;;12.90;92.80;;;;;;2094901;28;20032;-95
2021/10/11 00:34:24;;;;;;;1.98;0.90;;;12.90;92.80;;;;;;2087608;28;20581;-94
2021/10/11 00:35:43;;;;;;;2.03;0.88;;;12.90;92.80;;;;;;2095289;28;20044;-94
2021/10/11 00:37:04;;;;;;;1.73;0.70;;;12.80;92.80;;;;;;2084358;28;20037;-93
2021/10/11 00:38:23;;;;;;;1.88;0.90;;;12.80;92.80;;;;;;2079713;28;20052;-94
2021/10/11 00:39:42;;;;;;;2.50;1.02;;;12.80;92.90;;;;;;2080601;28;20050;-94
2021/10/11 00:41:02;;;;;;;1.73;0.98;;;12.80;92.90;;;;;;2087904;28;20422;-95
2021/10/11 00:42:21;;;;;;;1.90;0.90;;;12.70;92.90;;;;;;2092662;28;20047;-94
2021/10/11 00:43:41;;;;;;;3.22;0.90;;;12.80;92.90;;;;;;2099683;28;20047;-95
2021/10/11 00:45:00;;;;;;;2.60;0.85;;;12.70;92.90;;;;;;2101039;28;20490;-95
2021/10/11 00:46:19;;;;;;;3.15;1.13;;;12.70;93.00;;;;;;2088738;28;20493;-93
2021/10/11 00:47:39;;;;;;;2.35;0.80;;;12.70;93.00;;;;;;2077936;28;20041;-95
2021/10/11 00:48:58;;;;;;;2.25;0.90;;;12.60;93.00;;;;;;2088509;28;20048;-93
2021/10/11 00:50:17;;;;;;;1.52;1.00;;;12.60;93.00;;;;;;2088185;28;20056;-94
2021/10/11 00:51:37;;;;;;;2.60;0.93;;;12.60;93.00;;;;;;2098922;28;20040;-94
2021/10/11 00:52:57;;;;;;;2.70;0.90;;;12.60;93.00;;;;;;2087259;28;20040;-93
2021/10/11 00:54:17;;;;;;;2.80;0.80;;;12.60;93.00;;;;;;2094600;28;20048;-94
2021/10/11 00:55:37;;;;;;;2.40;1.02;;;12.60;93.00;;;;;;2096550;28;20107;-93
2021/10/11 00:56:56;;;;;;;1.05;0.57;;;12.50;93.30;;;;;;2106439;28;20059;-94
2021/10/11 00:58:15;;;;;;;3.95;1.13;;;12.60;93.00;;;;;;2097443;28;20041;-94
2021/10/11 00:59:35;;;;;;;2.10;0.82;;;12.60;93.30;;;;;;2090850;28;20049;-94
2021/10/11 01:00:55;;;;;;;2.08;0.90;;;12.50;93.00;;;;;;2106771;28;20501;-94
2021/10/11 01:02:14;;;;;;;2.00;1.00;;;12.50;93.00;;;;;;2112949;28;20044;-90
2021/10/11 01:03:33;;;;;;;3.10;1.17;;;12.50;93.00;;;;;;2113705;28;20047;-95
2021/10/11 01:04:53;;;;;;;2.33;0.90;;;12.50;93.10;;;;;;2111035;28;20033;-93
2021/10/11 01:06:12;;;;;;;2.60;1.00;;;12.50;93.00;;;;;;2100069;28;20045;-95
2021/10/11 01:07:31;;;;;;;1.85;0.80;;;12.50;93.00;;;;;;2084491;28;20120;-95
2021/10/11 01:08:51;;;;;;;1.98;1.00;;;12.50;93.10;;;;;;2083623;28;20041;-94
2021/10/11 01:10:10;;;;;;;2.42;0.80;;;12.50;93.10;;;;;;2096750;28;20024;-96
2021/10/11 01:11:29;;;;;;;3.38;0.88;;;12.50;93.10;;;;;;2094911;28;20040;-94
2021/10/11 01:12:49;;;;;;;2.70;0.77;;;12.50;93.00;;;;;;2092242;28;20024;-94
2021/10/11 01:14:08;;;;;;;2.80;0.95;;;12.50;93.00;;;;;;2085126;28;20057;-94
2021/10/11 01:15:28;;;;;;;2.15;0.90;;;12.50;93.00;;;;;;2098451;28;20028;-94
2021/10/11 01:16:47;;;;;;;2.33;1.13;;;12.50;93.30;;;;;;2106529;28;20032;-95
2021/10/11 01:18:07;;;;;;;2.45;0.90;;;12.50;93.10;;;;;;2103548;28;20154;-94
2021/10/11 01:19:26;;;;;;;2.90;1.00;;;12.50;93.10;;;;;;2104808;28;20040;-94
2021/10/11 01:20:45;;;;;;;2.97;1.00;;;12.50;93.10;;;;;;2096274;28;20048;-93
2021/10/11 01:22:05;;;;;;;2.58;0.90;;;12.50;93.10;;;;;;2086347;28;20866;-94
2021/10/11 01:23:25;;;;;;;2.25;0.90;;;12.50;93.10;;;;;;2087660;28;20045;-95
2021/10/11 01:24:46;;;;;;;3.40;1.00;;;12.50;93.10;;;;;;2085116;28;20112;-95
2021/10/11 01:26:05;;;;;;;2.63;0.75;;;12.50;93.10;;;;;;2089999;28;20126;-94
2021/10/11 01:27:28;;;;;;;2.13;0.90;;;12.50;93.10;;;;;;2098496;28;20052;-94
2021/10/11 01:28:47;;;;;;;1.65;0.90;;;12.50;93.10;;;;;;2097077;28;20044;-94
2021/10/11 01:30:09;;;;;;;1.83;0.88;;;12.50;93.10;;;;;;2095095;28;20040;-95
2021/10/11 01:31:28;;;;;;;2.92;0.90;;;12.50;93.10;;;;;;2094243;28;20044;-94
2021/10/11 01:32:47;;;;;;;2.17;0.90;;;12.40;93.10;;;;;;2100342;28;20410;-91
2021/10/11 01:34:06;;;;;;;3.65;1.05;;;12.40;93.10;;;;;;2104173;28;20067;-94
2021/10/11 01:35:26;;;;;;;3.10;1.10;;;12.40;93.10;;;;;;2096846;28;20615;-94
2021/10/11 01:36:45;;;;;;;2.83;1.10;;;12.40;93.10;;;;;;2084337;28;20101;-94
2021/10/11 01:38:05;;;;;;;2.80;0.93;;;12.40;93.40;;;;;;2080645;28;20037;-94
2021/10/11 01:39:24;;;;;;;2.67;1.00;;;12.40;93.10;;;;;;2075614;28;20046;-95
2021/10/11 01:40:43;;;;;;;2.30;0.90;;;12.40;93.10;;;;;;2076246;28;20254;-94
2021/10/11 01:42:03;;;;;;;1.75;1.00;;;12.40;93.20;;;;;;2087398;28;20041;-94
2021/10/11 01:43:22;;;;;;;2.92;1.10;;;12.40;93.10;;;;;;2089004;28;20053;-94
2021/10/11 01:44:42;;;;;;;2.58;0.90;;;12.40;93.10;;;;;;2079647;28;20041;-94
2021/10/11 01:46:01;;;;;;;2.72;1.20;;;12.40;93.10;;;;;;2097740;28;20028;-94
2021/10/11 01:47:23;;;;;;;1.63;1.00;;;12.40;93.20;;;;;;2104607;28;20114;-94
2021/10/11 01:48:42;;;;;;;3.00;1.10;;;12.40;93.20;;;;;;2104733;28;20036;-94
2021/10/11 01:50:03;;;;;;;3.30;1.10;;;12.30;93.10;;;;;;2095251;28;20057;-94
2021/10/11 01:51:23;;;;;;;2.85;1.00;;;12.40;93.20;;;;;;2101938;28;20027;-94
2021/10/11 01:52:42;;;;;;;3.20;1.10;;;12.30;93.20;;;;;;2096193;28;20036;-92
2021/10/11 01:54:02;;;;;;;2.55;0.98;;;12.30;93.20;;;;;;2083744;28;20107;-94
2021/10/11 01:55:21;;;;;;;3.38;1.08;;;12.30;93.20;;;;;;2090044;28;20052;-93
2021/10/11 01:56:40;;;;;;;2.60;1.20;;;12.30;93.20;;;;;;2084352;28;20082;-94
2021/10/11 01:58:00;;;;;;;3.88;1.10;;;12.30;93.20;;;;;;2081553;28;20029;-95
2021/10/11 01:59:19;;;;;;;3.47;1.40;;;12.30;93.20;;;;;;2092652;28;20526;-93
2021/10/11 02:00:39;;;;;;;2.40;1.05;;;12.30;93.20;;;;;;2084894;28;20049;-93
2021/10/11 02:01:58;;;;;;;3.53;1.10;;;12.20;93.20;;;;;;2080330;28;20049;-93
2021/10/11 02:03:17;;;;;;;3.38;1.02;;;12.20;93.20;;;;;;2076878;28;20728;-93
2021/10/11 02:04:36;;;;;;;3.80;1.00;;;12.20;93.20;;;;;;2093778;28;20040;-94
2021/10/11 02:05:56;;;;;;;2.70;1.30;;;12.20;93.30;;;;;;2088457;28;20140;-95
2021/10/11 02:07:15;;;;;;;3.80;1.10;;;12.20;93.30;;;;;;2098186;28;20072;-93
2021/10/11 02:08:34;;;;;;;2.28;0.95;;;12.20;93.30;;;;;;2095222;28;20472;-93
2021/10/11 02:09:53;;;;;;;3.10;1.30;;;12.20;93.30;;;;;;2085555;28;20124;-93
2021/10/11 02:11:13;;;;;;;1.98;1.10;;;12.10;93.30;;;;;;2097007;28;20045;-94
2021/10/11 02:12:32;;;;;;;3.60;1.15;;;12.10;93.30;;;;;;2076805;28;20048;-94
2021/10/11 02:13:52;;;;;;;3.15;1.40;;;12.10;93.30;;;;;;2086125;28;20513;-94
2021/10/11 02:15:11;;;;;;;2.33;1.10;;;12.10;93.30;;;;;;2090105;28;20786;-93
2021/10/11 02:16:30;;;;;;;2.17;1.20;;;12.10;93.30;;;;;;2082175;28;20045;-94
2021/10/11 02:17:50;;;;;;;2.75;1.05;;;12.00;93.30;;;;;;2080177;28;20056;-94
2021/10/11 02:19:09;;;;;;;3.40;1.63;;;12.00;93.30;;;;;;2094835;28;20052;-94
2021/10/11 02:20:28;;;;;;;2.67;1.30;;;12.00;93.30;;;;;;2091865;28;20053;-94
2021/10/11 02:21:48;;;;;;;2.90;1.30;;;12.00;93.40;;;;;;2083856;28;20041;-94
2021/10/11 02:23:07;;;;;;;3.08;1.20;;;12.00;93.40;;;;;;2099050;28;20060;-94
2021/10/11 02:24:27;;;;;;;3.03;1.20;;;12.00;93.40;;;;;;2107382;28;20028;-94
2021/10/11 02:25:46;;;;;;;2.10;1.20;;;12.00;93.40;;;;;;2114298;28;20036;-95
2021/10/11 02:27:05;;;;;;;4.20;1.17;;;12.00;93.40;;;;;;2095143;28;20044;-93
2021/10/11 02:28:25;;;;;;;3.03;1.00;;;12.00;93.40;;;;;;2085136;28;20037;-94
2021/10/11 02:29:44;;;;;;;3.22;1.20;;;12.00;93.40;;;;;;2096554;28;20044;-95
2021/10/11 02:31:04;;;;;;;2.55;1.10;;;11.90;93.40;;;;;;2104067;28;20413;-94
2021/10/11 02:32:23;;;;;;;2.97;1.10;;;11.90;93.40;;;;;;2087169;28;20076;-95
2021/10/11 02:33:44;;;;;;;2.50;1.10;;;11.90;93.40;;;;;;2082059;28;20041;-94
2021/10/11 02:35:05;;;;;;;3.65;1.20;;;11.90;93.40;;;;;;2082134;28;20582;-94
2021/10/11 02:36:25;;;;;;;2.45;1.00;;;11.90;93.40;;;;;;2097286;28;20032;-93
2021/10/11 02:37:44;;;;;;;4.10;1.20;;;11.90;93.40;;;;;;2094843;28;20040;-93
2021/10/11 02:39:04;;;;;;;2.83;1.00;;;11.80;93.40;;;;;;2102527;28;20418;-93
2021/10/11 02:40:23;;;;;;;2.78;1.10;;;11.80;93.40;;;;;;2094070;28;20738;-94
2021/10/11 02:41:42;;;;;;;2.85;0.90;;;11.80;93.40;;;;;;2088679;28;20076;-95
2021/10/11 02:43:02;;;;;;;2.72;1.08;;;11.80;93.40;;;;;;2098397;28;20043;-94
2021/10/11 02:44:21;;;;;;;1.90;0.95;;;11.80;93.40;;;;;;2104267;28;20514;-93
2021/10/11 02:45:40;;;;;;;3.20;0.90;;;11.80;93.40;;;;;;2085996;28;20068;-94
2021/10/11 02:46:59;;;;;;;3.58;1.40;;;11.80;93.40;;;;;;2080357;28;20040;-94
2021/10/11 02:48:19;;;;;;;3.70;1.27;;;11.80;93.40;;;;;;2094384;28;20044;-94
2021/10/11 02:49:38;;;;;;;2.13;1.00;;;11.80;93.40;;;;;;2078309;28;20073;-94
2021/10/11 02:50:58;;;;;;;2.88;1.08;;;11.80;93.40;;;;;;2088820;28;20558;-93
2021/10/11 02:52:17;;;;;;;3.42;1.08;;;11.70;93.40;;;;;;2092123;28;20045;-94
2021/10/11 02:53:36;;;;;;;2.88;1.10;;;11.70;93.40;;;;;;2101226;28;20044;-95
2021/10/11 02:54:56;;;;;;;3.45;0.95;;;11.70;93.40;;;;;;2081249;28;20552;-93
2021/10/11 02:56:16;;;;;;;3.13;0.75;;;11.70;93.40;;;;;;2077605;28;20049;-93
2021/10/11 02:57:35;;;;;;;3.00;1.00;;;11.70;93.40;;;;;;2097947;28;20041;-93
2021/10/11 02:58:55;;;;;;;3.80;1.10;;;11.70;93.40;;;;;;2076692;28;20079;-94
2021/10/11 03:00:14;;;;;;;1.95;1.00;;;11.70;93.40;;;;;;2078985;28;20045;-94
2021/10/11 03:01:33;;;;;;;2.33;1.02;;;11.60;93.40;;;;;;2088342;28;20514;-94
2021/10/11 03:02:53;;;;;;;1.65;0.80;;;11.70;93.40;;;;;;2088091;28;20048;-94
2021/10/11 03:04:12;;;;;;;2.53;0.93;;;11.60;93.40;;;;;;2084058;28;20168;-93
2021/10/11 03:05:31;;;;;;;1.85;0.80;;;11.60;93.40;;;;;;2081036;28;20040;-95
2021/10/11 03:06:50;;;;;;;3.60;0.90;;;11.60;93.40;;;;;;2097916;28;20036;-94
2021/10/11 03:08:10;;;;;;;4.20;1.00;;;11.60;93.40;;;;;;2082949;28;20042;-94
2021/10/11 03:09:29;;;;;;;1.95;0.90;;;11.60;93.40;;;;;;2085798;28;20041;-93
2021/10/11 03:10:49;;;;;;;1.85;0.80;;;11.60;93.40;;;;;;2095516;28;20068;-95
2021/10/11 03:12:08;;;;;;;1.80;0.80;;;11.60;93.40;;;;;;2077274;28;20045;-94
2021/10/11 03:13:27;;;;;;;2.53;0.82;;;11.50;93.40;;;;;;2084847;28;20563;-93
2021/10/11 03:14:46;;;;;;;2.78;0.90;;;11.50;93.40;;;;;;2088913;28;20040;-93
2021/10/11 03:16:06;;;;;;;3.45;0.73;;;11.50;93.70;;;;;;2092965;28;20017;-94
2021/10/11 03:17:25;;;;;;;2.85;0.90;;;11.50;93.40;;;;;;2096405;28;20073;-92
2021/10/11 03:18:44;;;;;;;1.92;0.70;;;11.50;93.40;;;;;;2095993;28;20048;-94
2021/10/11 03:20:05;;;;;;;2.90;1.00;;;11.50;93.40;;;;;;2082806;28;20079;-93
2021/10/11 03:21:24;;;;;;;3.45;0.80;;;11.50;93.40;;;;;;2090629;28;20040;-93
2021/10/11 03:22:44;;;;;;;2.60;0.90;;;11.50;93.40;;;;;;2084771;28;20430;-94
2021/10/11 03:24:03;;;;;;;3.22;0.90;;;11.50;93.40;;;;;;2097007;28;20119;-94
2021/10/11 03:25:23;;;;;;;2.13;1.00;;;11.40;93.40;;;;;;2088641;28;20487;-93
2021/10/11 03:26:42;;;;;;;2.95;0.80;;;11.40;93.40;;;;;;2101592;28;20052;-94
2021/10/11 03:28:02;;;;;;;1.02;0.70;;;11.40;93.40;;;;;;2103107;28;20111;-92
2021/10/11 03:29:21;;;;;;;4.57;0.95;;;11.40;93.40;;;;;;2109681;28;20048;-94
2021/10/11 03:30:40;;;;;;;4.20;0.90;;;11.40;93.70;;;;;;2101142;28;20029;-94
2021/10/11 03:31:59;;;;;;;2.20;0.80;;;11.30;93.40;;;;;;2111285;28;20024;-93
2021/10/11 03:33:18;;;;;;;3.35;0.80;;;11.30;93.40;;;;;;2107649;28;20790;-93
2021/10/11 03:34:37;;;;;;;1.92;0.90;;;11.30;93.40;;;;;;2103328;28;20119;-93
2021/10/11 03:35:56;;;;;;;3.28;0.90;;;11.30;93.50;;;;;;2100168;28;20044;-93
2021/10/11 03:37:17;;;;;;;3.75;1.00;;;11.20;93.40;;;;;;2090370;28;20037;-94
2021/10/11 03:38:36;;;;;;;2.60;1.08;;;11.20;93.70;;;;;;2099914;28;20043;-94
2021/10/11 03:39:56;;;;;;;1.67;0.70;;;11.20;93.50;;;;;;2107886;28;20044;-93
2021/10/11 03:41:15;;;;;;;2.00;0.88;;;11.20;93.50;;;;;;2104778;28;20047;-94
2021/10/11 03:42:34;;;;;;;2.22;0.80;;;11.20;93.50;;;;;;2102819;28;20498;-93
2021/10/11 03:43:54;;;;;;;1.75;0.70;;;11.10;93.40;;;;;;2103742;28;20105;-93
2021/10/11 03:45:13;;;;;;;3.30;0.80;;;11.10;93.50;;;;;;2103499;28;20028;-93
2021/10/11 03:46:33;;;;;;;2.58;1.00;;;11.10;93.50;;;;;;2103741;28;20036;-93
2021/10/11 03:47:52;;;;;;;2.92;0.90;;;11.10;93.70;;;;;;2108732;28;20036;-94
2021/10/11 03:49:12;;;;;;;4.57;1.00;;;11.00;93.40;;;;;;2104180;28;20036;-94
2021/10/11 03:50:31;;;;;;;2.17;0.80;;;11.00;93.40;;;;;;2090939;28;20032;-94
2021/10/11 03:51:50;;;;;;;3.65;1.17;;;11.00;93.50;;;;;;2087205;28;20462;-93
2021/10/11 03:53:10;;;;;;;2.25;1.00;;;11.00;93.50;;;;;;2095903;28;20036;-94
2021/10/11 03:54:29;;;;;;;2.47;1.05;;;11.00;93.50;;;;;;2099247;28;20065;-94
2021/10/11 03:55:49;;;;;;;2.33;0.90;;;11.00;93.50;;;;;;2098970;28;20517;-94
2021/10/11 03:57:08;;;;;;;2.10;1.08;;;11.00;93.50;;;;;;2103277;28;20044;-94
2021/10/11 03:58:27;;;;;;;2.20;0.90;;;11.00;93.50;;;;;;2102476;28;20037;-95
2021/10/11 03:59:47;;;;;;;3.33;1.02;;;11.00;93.40;;;;;;2095505;28;20045;-93
2021/10/11 04:01:06;;;;;;;2.70;0.85;;;10.90;93.40;;;;;;2102916;28;20083;-93
2021/10/11 04:02:26;;;;;;;2.70;0.98;;;10.90;93.40;;;;;;2105938;28;20040;-93
2021/10/11 04:03:46;;;;;;;2.55;0.90;;;10.90;93.40;;;;;;2105755;28;20044;-93
2021/10/11 04:05:07;;;;;;;3.60;1.10;;;10.90;93.40;;;;;;2109928;28;20024;-94
2021/10/11 04:06:27;;;;;;;4.35;1.13;;;10.90;93.40;;;;;;2104542;28;20035;-94
2021/10/11 04:07:50;;;;;;;2.42;1.13;;;10.90;93.40;;;;;;2104217;28;20048;-94
2021/10/11 04:09:09;;;;;;;2.97;1.10;;;10.90;93.40;;;;;;2108002;28;20032;-94
2021/10/11 04:10:34;;;;;;;2.40;1.20;;;10.90;93.40;;;;;;2102193;28;20052;-94
2021/10/11 04:11:54;;;;;;;3.33;1.13;;;10.90;93.40;;;;;;2102901;28;20299;-94
2021/10/11 04:13:19;;;;;;;3.58;1.08;;;10.90;93.40;;;;;;2104486;28;20048;-93
2021/10/11 04:14:39;;;;;;;1.88;0.95;;;10.90;93.40;;;;;;2102884;28;20032;-94
2021/10/11 04:15:58;;;;;;;3.28;1.08;;;10.90;93.40;;;;;;2096166;28;20044;-93
2021/10/11 04:17:17;;;;;;;2.63;1.10;;;10.90;93.40;;;;;;2096612;28;20040;-94
2021/10/11 04:18:37;;;;;;;2.33;0.98;;;10.90;93.40;;;;;;2099327;28;20052;-95
2021/10/11 04:19:56;;;;;;;1.85;0.88;;;10.90;93.40;;;;;;2099033;28;20048;-93
2021/10/11 04:21:15;;;;;;;3.95;1.17;;;10.90;93.40;;;;;;2107096;28;20044;-93
2021/10/11 04:22:35;;;;;;;2.58;1.02;;;10.90;93.40;;;;;;2101438;28;20052;-94
2021/10/11 04:23:55;;;;;;;2.25;1.20;;;10.80;93.40;;;;;;2089749;28;20045;-94
2021/10/11 04:25:14;;;;;;;4.13;1.10;;;10.90;93.40;;;;;;2099122;28;20063;-93
2021/10/11 04:26:34;;;;;;;2.88;0.95;;;10.80;93.40;;;;;;2091406;28;20554;-93
2021/10/11 04:27:53;;;;;;;3.67;1.40;;;10.80;93.40;;;;;;2099441;28;20048;-93
2021/10/11 04:29:13;;;;;;;2.75;1.30;;;10.80;93.40;;;;;;2093826;28;20487;-93
2021/10/11 04:30:32;;;;;;;5.15;1.40;;;10.80;93.40;;;;;;2098726;28;20036;-93
2021/10/11 04:31:51;;;;;;;3.30;1.40;;;10.80;93.40;;;;;;2104096;28;20084;-93
2021/10/11 04:33:11;;;;;;;3.08;0.80;;;10.80;93.40;;;;;;2105646;28;20044;-94
2021/10/11 04:34:30;;;;;;;3.03;1.00;;;10.80;93.40;;;;;;2098568;28;20029;-93
2021/10/11 04:35:50;;;;;;;3.75;1.35;;;10.80;93.40;;;;;;2104037;28;20041;-92
2021/10/11 04:37:09;;;;;;;3.40;0.90;;;10.80;93.40;;;;;;2096767;28;20037;-94
2021/10/11 04:38:28;;;;;;;2.53;1.00;;;10.80;93.40;;;;;;2098243;28;20048;-93
2021/10/11 04:39:47;;;;;;;3.00;1.23;;;10.80;93.40;;;;;;2092247;28;20041;-93
2021/10/11 04:41:07;;;;;;;2.80;1.13;;;10.80;93.40;;;;;;2082383;28;20038;-95
2021/10/11 04:42:26;;;;;;;3.58;1.00;;;10.80;93.40;;;;;;2090354;28;20495;-92
2021/10/11 04:43:45;;;;;;;3.13;1.27;;;10.80;93.40;;;;;;2103517;28;20040;-93
2021/10/11 04:45:05;;;;;;;3.70;1.00;;;10.80;93.40;;;;;;2106759;28;20040;-92
2021/10/11 04:46:24;;;;;;;2.97;1.08;;;10.70;93.30;;;;;;2105789;28;20502;-94
2021/10/11 04:47:43;;;;;;;2.50;1.17;;;10.70;93.30;;;;;;2098281;28;20025;-94
2021/10/11 04:49:02;;;;;;;3.70;1.30;;;10.70;93.60;;;;;;2104705;28;20044;-94
2021/10/11 04:50:22;;;;;;;1.90;0.90;;;10.70;93.40;;;;;;2109490;28;20044;-94
2021/10/11 04:51:41;;;;;;;4.35;1.30;;;10.70;93.40;;;;;;2096349;28;20143;-93
2021/10/11 04:53:01;;;;;;;3.40;1.30;;;10.70;93.30;;;;;;2090755;28;20041;-94
2021/10/11 04:54:20;;;;;;;2.25;1.00;;;10.70;93.40;;;;;;2102926;28;20044;-94
2021/10/11 04:55:40;;;;;;;2.90;1.08;;;10.70;93.40;;;;;;2106378;28;20036;-94
2021/10/11 04:56:59;;;;;;;2.38;1.02;;;10.70;93.30;;;;;;2096843;28;20041;-93
2021/10/11 04:58:18;;;;;;;1.52;0.80;;;10.60;93.30;;;;;;2091014;28;20037;-93
2021/10/11 04:59:37;;;;;;;3.80;0.90;;;10.60;93.30;;;;;;2099716;28;20027;-93
2021/10/11 05:00:56;;;;;;;2.70;1.10;;;10.60;93.30;;;;;;2091097;28;20061;-84
2021/10/11 05:02:16;;;;;;;2.60;0.90;;;10.60;93.30;;;;;;2093840;28;20033;-91
2021/10/11 05:03:35;;;;;;;2.03;0.90;;;10.60;93.30;;;;;;2078779;28;20050;-92
2021/10/11 05:04:54;;;;;;;2.92;0.75;;;10.60;93.30;;;;;;2083221;28;20045;-91
2021/10/11 05:06:13;;;;;;;2.58;1.00;;;10.60;93.30;;;;;;2102239;28;20096;-91
2021/10/11 05:07:33;;;;;;;2.90;1.00;;;10.60;93.30;;;;;;2105801;28;20498;-93
2021/10/11 05:08:52;;;;;;;2.20;1.10;;;10.50;93.30;;;;;;2107096;28;20028;-93
2021/10/11 05:10:12;;;;;;;2.38;0.90;;;10.50;93.30;;;;;;2073581;28;20054;-93
2021/10/11 05:11:31;;;;;;;2.72;0.90;;;10.50;93.60;;;;;;2091360;28;20506;-92
2021/10/11 05:12:50;;;;;;;5.30;1.13;;;10.50;93.30;;;;;;2084561;28;20065;-93
2021/10/11 05:14:09;;;;;;;2.60;0.90;;;10.50;93.30;;;;;;2091042;28;20049;-91
2021/10/11 05:15:29;;;;;;;2.05;0.90;;;10.50;93.30;;;;;;2086710;28;20036;-90
2021/10/11 05:16:48;;;;;;;3.55;1.02;;;10.50;93.30;;;;;;2085790;28;20040;-91
2021/10/11 05:18:07;;;;;;;3.25;1.10;;;10.50;93.30;;;;;;2100224;28;20056;-92
2021/10/11 05:19:27;;;;;;;2.67;1.00;;;10.50;93.30;;;;;;2087597;28;20452;-91
2021/10/11 05:20:50;;;;;;;2.45;1.00;;;10.40;93.30;;;;;;2089566;28;20040;-90
2021/10/11 05:22:09;;;;;;;2.92;1.02;;;10.40;93.30;;;;;;2082876;28;20424;-91
2021/10/11 05:23:30;;;;;;;3.75;0.90;;;10.40;93.30;;;;;;2089996;28;20499;-92
2021/10/11 05:24:49;;;;;;;2.95;0.88;;;10.40;93.30;;;;;;2100105;28;20063;-90
2021/10/11 05:26:08;;;;;;;1.70;0.70;;;10.40;93.30;;;;;;2104263;28;20046;-88
2021/10/11 05:27:27;;;;;;;3.50;1.08;;;10.40;93.30;;;;;;2087451;28;20531;-91
2021/10/11 05:28:47;;;;;;;3.70;1.00;;;10.40;93.30;;;;;;2099495;28;20036;-90
2021/10/11 05:30:07;;;;;;;2.75;1.00;;;10.40;93.30;;;;;;2090784;28;20037;-90
2021/10/11 05:31:26;;;;;;;2.08;0.98;;;10.30;93.30;;;;;;2096942;28;20095;-91
2021/10/11 05:32:46;;;;;;;3.28;1.00;;;10.30;93.30;;;;;;2101066;28;20040;-91
2021/10/11 05:34:05;;;;;;;3.42;1.10;;;10.30;93.30;;;;;;2100874;28;20040;-91
2021/10/11 05:35:24;;;;;;;3.75;0.90;;;10.30;93.30;;;;;;2095948;28;20509;-92
2021/10/11 05:36:44;;;;;;;2.75;0.90;;;10.30;93.40;;;;;;2093402;28;20038;-92
2021/10/11 05:38:04;;;;;;;3.05;0.90;;;10.30;93.40;;;;;;2090296;28;20442;-90
2021/10/11 05:39:23;;;;;;;1.98;0.90;;;10.30;93.30;;;;;;2105439;28;20166;-88
2021/10/11 05:40:44;;;;;;;3.92;1.00;;;10.30;93.30;;;;;;2096162;28;20112;-88
2021/10/11 05:42:06;;;;;;;;;;;10.30;93.30;;;;;;2107837;28;20036;-93
2021/10/11 05:43:25;;;;;;;3.30;0.90;;;10.30;93.30;;;;;;2098025;28;20435;-91
2021/10/11 05:44:44;;;;;;;2.10;0.90;;;10.20;93.20;;;;;;2110556;28;20074;-88
2021/10/11 05:46:04;;;;;;;4.30;0.90;;;10.20;93.20;;;;;;2094386;28;20040;-90
2021/10/11 05:47:23;;;;;;;2.67;0.90;;;10.20;93.20;;;;;;2092859;28;20473;-91
2021/10/11 05:48:42;;;;;;;3.20;0.95;;;10.20;93.20;;;;;;2103520;28;20546;-91
2021/10/11 05:50:03;;;;;;;2.28;1.00;;;10.20;93.30;;;;;;2097008;28;20041;-91
2021/10/11 05:51:22;;;;;;;3.72;1.13;;;10.20;93.30;;;;;;2104555;28;20036;-90
2021/10/11 05:52:41;;;;;;;4.18;1.10;;;10.20;93.30;;;;;;2106335;28;20032;-90
2021/10/11 05:54:00;;;;;;;3.85;1.00;;;10.20;93.30;;;;;;2107205;28;20048;-91
2021/10/11 05:55:19;;;;;;;1.92;1.00;;;10.20;93.50;;;;;;2117216;28;20466;-91
2021/10/11 05:56:38;;;;;;;3.15;1.40;;;10.20;93.20;;;;;;2109600;28;20048;-92
2021/10/11 05:57:58;;;;;;;1.90;0.80;;;10.20;93.20;;;;;;2095220;28;20028;-92
2021/10/11 05:59:17;;;;;;;2.03;0.82;;;10.10;93.20;;;;;;2099504;28;20730;-92
2021/10/11 06:00:37;;;;;;;2.17;1.02;;;10.10;93.20;;;;;;2103335;28;20048;-92
2021/10/11 06:01:55;;;;;;;2.13;1.05;;;10.10;93.20;;;;;;2110138;28;20044;-87
2021/10/11 06:03:14;;;;;;;4.60;1.38;;;10.10;93.20;;;;;;2116565;27;20047;-94
2021/10/11 06:04:33;;;;;;;3.25;0.95;;;10.10;93.20;;;;;;2113581;28;20237;-92
2021/10/11 06:05:52;;;;;;;3.42;1.00;;;10.10;93.20;;;;;;2098943;28;20472;-91
2021/10/11 06:07:12;;;;;;;2.03;1.10;;;10.10;93.20;;;;;;2101349;28;20040;-92
2021/10/11 06:08:31;;;;;;;2.13;0.90;;;10.10;93.20;;;;;;2096150;28;20107;-91
2021/10/11 06:09:50;;;;;;;3.67;1.10;;;10.10;93.20;;;;;;2092131;28;20572;-94
2021/10/11 06:11:17;;;;;;;3.03;1.05;;;10.10;93.20;;;;;;2097876;28;20040;-91
2021/10/11 06:12:36;;;;;;;1.85;0.82;;;10.10;93.20;;;;;;2105064;28;20040;-91
2021/10/11 06:13:55;;;;;;;2.65;0.93;;;10.10;93.20;;;;;;2112171;28;20079;-91
2021/10/11 06:15:15;;;;;;;2.70;1.00;;;10.10;93.10;;;;;;2092410;28;20037;-92
2021/10/11 06:16:34;;;;;;;2.33;0.90;;;10.10;93.10;;;;;;2106295;28;20099;-92
2021/10/11 06:17:53;;;;;;;3.08;1.00;;;10.10;93.10;;;;;;2117390;28;20035;-90
2021/10/11 06:19:12;;;;;;;1.95;1.02;;;10.10;93.10;;;;;;2119537;28;20032;-92
2021/10/11 06:20:31;;;;;;;3.20;1.02;;;10.10;93.00;;;;;;2116696;28;20100;-91
2021/10/11 06:21:50;;;;;;;2.92;1.00;;;10.20;93.10;;;;;;2108634;28;20021;-91
2021/10/11 06:23:11;;;;;;;1.98;0.77;;;10.20;93.00;;;;;;2106525;28;20032;-92
2021/10/11 06:24:31;;;;;;;2.03;0.90;;;10.20;93.00;;;;;;2100548;28;20040;-85
2021/10/11 06:25:50;;;;;;;1.88;1.10;;;10.20;93.00;;;;;;2093225;28;20080;-91
2021/10/11 06:27:09;;;;;;;2.47;1.30;;;10.20;93.00;;;;;;2109363;28;20039;-92
2021/10/11 06:28:29;;;;;;;2.40;0.85;;;10.20;93.00;;;;;;2104366;28;20051;-91
2021/10/11 06:29:48;;;;;;;4.00;1.10;;;10.30;93.00;;;;;;2098655;28;20040;-91
2021/10/11 06:31:08;;;;;;;2.72;1.00;;;10.30;93.00;;;;;;2104090;28;20070;-92
2021/10/11 06:32:27;;;;;;;2.33;1.10;;;10.30;93.00;;;;;;2107339;28;20044;-93
2021/10/11 06:33:46;;;;;;;2.45;0.90;;;10.30;92.90;;;;;;2101953;28;20564;-92
2021/10/11 06:35:06;;;;;;;2.65;0.90;;;10.30;92.90;;;;;;2098595;28;20056;-91
2021/10/11 06:36:28;;;;;;;2.97;1.02;;;10.30;92.90;;;;;;2109990;28;20024;-91
2021/10/11 06:40:04;;;;;;;3.67;1.35;;;10.40;92.90;;;;;;2111647;28;20494;-92
2021/10/11 06:41:24;;;;;;;1.92;0.95;;;10.40;92.80;;;;;;2107512;28;20036;-93
2021/10/11 06:42:44;;;;;;;2.05;0.90;;;10.40;92.80;;;;;;2099880;28;20082;-91
2021/10/11 06:44:03;;;;;;;2.25;1.00;;;10.40;92.80;;;;;;2106023;28;20048;-93
2021/10/11 06:45:22;;;;;;;2.20;0.90;;;10.40;92.80;;;;;;2107315;28;20044;-91
2021/10/11 06:46:41;;;;;;;2.15;1.00;;;10.50;92.80;;;;;;2106746;28;20029;-92
2021/10/11 06:48:00;;;;;;;2.38;1.00;;;10.50;92.80;;;;;;2103810;28;20088;-92
2021/10/11 06:49:20;;;;;;;3.13;1.05;;;10.50;92.80;;;;;;2097564;28;20041;-92
2021/10/11 06:50:39;;;;;;;1.55;0.82;;;10.50;92.80;;;;;;2096093;28;20421;-91
2021/10/11 06:51:58;;;;;;;1.52;0.80;;;10.60;92.80;;;;;;2095301;28;20040;-92
2021/10/11 06:53:17;;;;;;;2.78;1.13;;;10.60;92.80;;;;;;2099498;28;20051;-91
2021/10/11 06:54:36;;;;;;;1.92;1.00;;;10.60;93.00;;;;;;2095754;28;20047;-92
2021/10/11 06:55:56;;;;;;;1.98;1.02;;;10.60;92.70;;;;;;2084545;28;20123;-92
2021/10/11 06:57:15;;;;;;;2.05;0.93;;;10.60;92.70;;;;;;2101090;28;20522;-91